Time;durP1;ratioP1;P1;durP2;ratioP2;P2;SDS_P1;SDS_P2;PMS_P1;PMS_P2;Temp;Humidity;BMP_temperature;BMP_pressure;BME280_temperature;BME280_humidity;BME280_pressure;Samples;Min_cycle;Max_cycle;Signal;HPM_P1;HPM_P2
2023/12/12 00:00:14;;;;;;;13.65;3.55;;;;;;;;;;5072493;28;20427;-75
2023/12/12 00:02:40;;;;;;;8.70;3.00;;;;;;;;;;5089008;28;20490;-75
2023/12/12 00:05:06;;;;;;;7.72;3.13;;;;;;;;;;5088724;28;20403;-75
2023/12/12 00:07:32;;;;;;;9.30;3.03;;;;;;;;;;5071643;28;20422;-77
2023/12/12 00:09:58;;;;;;;9.65;3.10;;;;;;;;;;5103197;28;20776;-78
2023/12/12 00:12:24;;;;;;;8.43;3.25;;;;;;;;;;5080626;28;20736;-78
2023/12/12 00:14:50;;;;;;;8.13;3.45;;;;;;;;;;5071650;28;20565;-78
2023/12/12 00:17:16;;;;;;;6.78;2.90;;;;;;;;;;5070093;28;20810;-78
2023/12/12 00:19:42;;;;;;;11.63;3.35;;;;;;;;;;5090892;28;20424;-78
2023/12/12 00:22:08;;;;;;;10.77;3.37;;;;;;;;;;5070054;28;20455;-78
2023/12/12 00:24:35;;;;;;;9.95;3.10;;;;;;;;;;5070662;28;20930;-78
2023/12/12 00:27:01;;;;;;;7.57;3.47;;;;;;;;;;5073842;28;20891;-78
2023/12/12 00:29:27;;;;;;;8.60;3.30;;;;;;;;;;5091901;28;20746;-78
2023/12/12 00:31:53;;;;;;;8.73;3.67;;;;;;;;;;5070515;28;20823;-78
2023/12/12 00:34:19;;;;;;;11.10;3.50;;;;;;;;;;5069833;28;20420;-78
2023/12/12 00:36:45;;;;;;;8.57;3.30;;;;;;;;;;5071283;28;20413;-78
2023/12/12 00:39:11;;;;;;;9.90;3.22;;;;;;;;;;5070238;28;20453;-78
2023/12/12 00:41:37;;;;;;;9.25;3.47;;;;;;;;;;5090745;28;20481;-78
2023/12/12 00:44:03;;;;;;;10.80;2.93;;;;;;;;;;5089608;28;20400;-78
2023/12/12 00:46:29;;;;;;;8.98;3.30;;;;;;;;;;5077548;28;20406;-78
2023/12/12 00:48:55;;;;;;;10.37;3.60;;;;;;;;;;5076496;28;20400;-78
2023/12/12 00:51:21;;;;;;;13.00;3.90;;;;;;;;;;5068490;28;20423;-78
2023/12/12 00:53:47;;;;;;;12.63;3.70;;;;;;;;;;5087976;28;20411;-78
2023/12/12 00:56:13;;;;;;;11.63;3.43;;;;;;;;;;5070039;28;20962;-78
2023/12/12 00:58:39;;;;;;;10.27;3.30;;;;;;;;;;5070658;28;20922;-78
2023/12/12 01:01:06;;;;;;;9.70;3.15;;;;;;;;;;5069240;28;20776;-76
2023/12/12 01:03:32;;;;;;;11.13;3.30;;;;;;;;;;5071121;28;20457;-75
2023/12/12 01:05:58;;;;;;;8.05;3.20;;;;;;;;;;5009129;28;1789388;-75
2023/12/12 01:08:24;;;;;;;9.38;3.20;;;;;;;;;;5087268;28;20799;-75
2023/12/12 01:10:50;;;;;;;9.45;3.70;;;;;;;;;;5054378;28;20415;-76
2023/12/12 01:13:16;;;;;;;8.90;3.47;;;;;;;;;;5089698;28;20409;-75
2023/12/12 01:15:42;;;;;;;7.55;3.50;;;;;;;;;;5072673;28;20407;-75
2023/12/12 01:18:08;;;;;;;9.40;3.20;;;;;;;;;;5088004;28;20411;-75
2023/12/12 01:20:34;;;;;;;12.93;3.67;;;;;;;;;;5067388;28;20458;-75
2023/12/12 01:23:00;;;;;;;11.75;3.78;;;;;;;;;;5054927;28;20403;-75
2023/12/12 01:25:27;;;;;;;13.10;3.55;;;;;;;;;;5071084;28;20486;-75
2023/12/12 01:27:53;;;;;;;8.82;2.90;;;;;;;;;;5088131;28;20403;-75
2023/12/12 01:30:19;;;;;;;10.57;3.63;;;;;;;;;;5079039;28;20421;-75
2023/12/12 01:32:45;;;;;;;9.95;3.17;;;;;;;;;;5076963;28;20408;-75
2023/12/12 01:35:11;;;;;;;8.85;3.22;;;;;;;;;;5073706;28;20413;-75
2023/12/12 01:37:37;;;;;;;11.40;3.35;;;;;;;;;;5053587;28;20986;-75
2023/12/12 01:40:04;;;;;;;9.70;3.22;;;;;;;;;;5071705;28;20427;-75
2023/12/12 01:42:30;;;;;;;7.43;3.35;;;;;;;;;;5059174;28;20779;-75
2023/12/12 01:44:57;;;;;;;8.50;3.00;;;;;;;;;;5070344;28;20395;-76
2023/12/12 01:47:23;;;;;;;12.73;3.28;;;;;;;;;;5070785;28;20744;-75
2023/12/12 01:49:49;;;;;;;9.35;3.00;;;;;;;;;;5090484;28;20402;-75
2023/12/12 01:52:15;;;;;;;13.50;3.63;;;;;;;;;;5071020;28;20411;-75
2023/12/12 01:54:44;;;;;;;13.97;3.33;;;;;;;;;;5071465;28;20512;-75
2023/12/12 01:57:12;;;;;;;12.13;3.30;;;;;;;;;;5086244;28;20486;-75
2023/12/12 01:59:38;;;;;;;11.70;3.80;;;;;;;;;;5075131;28;20433;-76
2023/12/12 02:02:06;;;;;;;10.23;3.70;;;;;;;;;;5075625;28;20441;-76
2023/12/12 02:04:32;;;;;;;10.68;3.00;;;;;;;;;;5088911;28;20425;-76
2023/12/12 02:06:59;;;;;;;10.07;3.20;;;;;;;;;;5070184;28;20415;-76
2023/12/12 02:09:25;;;;;;;9.85;2.90;;;;;;;;;;5069982;28;20812;-76
2023/12/12 02:11:51;;;;;;;12.20;3.63;;;;;;;;;;5073544;28;20462;-75
2023/12/12 02:14:17;;;;;;;9.82;3.60;;;;;;;;;;5070382;28;20395;-75
2023/12/12 02:16:43;;;;;;;8.10;3.33;;;;;;;;;;5086252;28;20478;-76
2023/12/12 02:19:09;;;;;;;10.25;3.35;;;;;;;;;;5070209;28;20449;-75
2023/12/12 02:21:36;;;;;;;12.75;3.45;;;;;;;;;;5032806;28;20406;-75
2023/12/12 02:24:02;;;;;;;10.02;3.42;;;;;;;;;;5067366;28;20403;-76
2023/12/12 02:26:30;;;;;;;9.75;3.40;;;;;;;;;;5069499;28;20453;-75
2023/12/12 02:28:57;;;;;;;8.87;3.20;;;;;;;;;;5068254;28;20498;-78
2023/12/12 02:31:23;;;;;;;10.00;3.53;;;;;;;;;;5086556;28;20422;-78
2023/12/12 02:33:49;;;;;;;11.55;3.83;;;;;;;;;;5070577;28;20868;-78
2023/12/12 02:36:15;;;;;;;10.45;3.30;;;;;;;;;;5052625;28;20498;-78
2023/12/12 02:38:41;;;;;;;10.65;3.40;;;;;;;;;;5053780;28;20400;-78
2023/12/12 02:41:08;;;;;;;7.30;3.20;;;;;;;;;;5072214;28;20417;-78
2023/12/12 02:43:35;;;;;;;13.35;3.50;;;;;;;;;;5067542;28;20574;-78
2023/12/12 02:46:01;;;;;;;8.07;3.78;;;;;;;;;;5069814;28;20407;-78
2023/12/12 02:48:27;;;;;;;7.93;3.30;;;;;;;;;;5078535;28;20490;-78
2023/12/12 02:50:53;;;;;;;12.82;3.80;;;;;;;;;;5058709;28;20462;-78
2023/12/12 02:53:19;;;;;;;8.07;3.22;;;;;;;;;;5069544;28;20457;-78
2023/12/12 02:55:46;;;;;;;10.33;3.43;;;;;;;;;;5084515;28;20404;-78
2023/12/12 02:58:12;;;;;;;9.88;3.42;;;;;;;;;;5067695;28;20961;-78
2023/12/12 03:00:38;;;;;;;8.88;3.67;;;;;;;;;;5036273;28;20450;-78
2023/12/12 03:03:04;;;;;;;9.63;3.13;;;;;;;;;;5069450;28;20404;-78
2023/12/12 03:05:31;;;;;;;9.68;3.65;;;;;;;;;;5070413;28;20399;-78
2023/12/12 03:07:57;;;;;;;11.20;3.38;;;;;;;;;;5072566;28;20400;-78
2023/12/12 03:10:23;;;;;;;10.20;3.60;;;;;;;;;;5103712;28;20399;-78
2023/12/12 03:12:49;;;;;;;12.50;3.90;;;;;;;;;;5076976;28;20398;-76
2023/12/12 03:15:15;;;;;;;10.63;3.65;;;;;;;;;;5075712;28;20514;-76
2023/12/12 03:17:41;;;;;;;10.45;4.07;;;;;;;;;;5087646;28;20522;-75
2023/12/12 03:20:07;;;;;;;9.88;3.70;;;;;;;;;;5087350;28;20476;-78
2023/12/12 03:22:33;;;;;;;12.43;3.80;;;;;;;;;;5085451;28;20427;-77
2023/12/12 03:25:00;;;;;;;8.38;3.58;;;;;;;;;;5068932;28;20445;-77
2023/12/12 03:27:26;;;;;;;8.32;3.65;;;;;;;;;;5062535;28;20404;-77
2023/12/12 03:29:53;;;;;;;10.38;3.90;;;;;;;;;;5086212;28;20404;-75
2023/12/12 03:32:19;;;;;;;11.85;4.05;;;;;;;;;;5068985;28;20545;-78
2023/12/12 03:34:45;;;;;;;14.98;5.15;;;;;;;;;;5064932;28;20431;-78
2023/12/12 03:37:11;;;;;;;13.65;3.92;;;;;;;;;;5055252;28;20408;-75
2023/12/12 03:39:37;;;;;;;10.10;4.10;;;;;;;;;;5069555;28;20423;-75
2023/12/12 03:42:04;;;;;;;15.77;4.30;;;;;;;;;;5052446;28;20895;-77
2023/12/12 03:44:30;;;;;;;12.43;4.17;;;;;;;;;;5088578;28;20406;-75
2023/12/12 03:46:56;;;;;;;14.27;4.07;;;;;;;;;;5093821;28;20913;-75
2023/12/12 03:49:22;;;;;;;13.57;4.65;;;;;;;;;;5053560;28;20498;-75
2023/12/12 03:51:48;;;;;;;14.55;5.03;;;;;;;;;;5053501;28;20405;-75
2023/12/12 03:54:14;;;;;;;15.63;5.28;;;;;;;;;;5059101;28;20487;-75
2023/12/12 03:56:40;;;;;;;12.38;4.78;;;;;;;;;;5089972;28;20411;-77
2023/12/12 03:59:06;;;;;;;12.32;5.20;;;;;;;;;;5106180;28;20483;-77
2023/12/12 04:01:32;;;;;;;13.55;5.45;;;;;;;;;;5088352;28;20427;-78
2023/12/12 04:03:58;;;;;;;16.65;5.32;;;;;;;;;;5073069;28;20486;-75
2023/12/12 04:06:24;;;;;;;14.15;6.25;;;;;;;;;;5071639;28;20408;-75
2023/12/12 04:08:51;;;;;;;12.80;5.80;;;;;;;;;;5071523;28;20416;-77
2023/12/12 04:11:17;;;;;;;14.73;5.75;;;;;;;;;;5038307;28;20423;-75
2023/12/12 04:13:43;;;;;;;13.63;5.32;;;;;;;;;;5072695;28;20407;-77
2023/12/12 04:16:09;;;;;;;14.33;5.73;;;;;;;;;;5072553;28;20877;-75
2023/12/12 04:18:35;;;;;;;17.42;5.53;;;;;;;;;;5088410;28;20764;-75
2023/12/12 04:21:01;;;;;;;17.45;5.57;;;;;;;;;;5071652;28;20946;-75
2023/12/12 04:23:27;;;;;;;13.70;5.80;;;;;;;;;;5071905;28;20468;-75
2023/12/12 04:25:53;;;;;;;15.80;5.97;;;;;;;;;;5071218;28;20832;-75
2023/12/12 04:28:19;;;;;;;16.50;5.60;;;;;;;;;;5057315;28;20413;-75
2023/12/12 04:30:46;;;;;;;18.27;6.53;;;;;;;;;;5072839;28;21030;-75
2023/12/12 04:33:12;;;;;;;14.00;5.60;;;;;;;;;;5075979;28;20409;-75
2023/12/12 04:35:38;;;;;;;18.02;6.25;;;;;;;;;;5072676;28;20943;-75
2023/12/12 04:38:04;;;;;;;17.35;6.55;;;;;;;;;;5075588;28;20409;-77
2023/12/12 04:40:30;;;;;;;16.27;5.77;;;;;;;;;;5087197;28;20438;-75
2023/12/12 04:42:56;;;;;;;19.60;6.70;;;;;;;;;;5074593;28;20913;-75
2023/12/12 04:45:22;;;;;;;18.35;6.53;;;;;;;;;;5039647;28;20397;-75
2023/12/12 04:47:48;;;;;;;19.33;7.18;;;;;;;;;;5077730;28;20887;-75
2023/12/12 04:50:14;;;;;;;20.63;6.88;;;;;;;;;;5089700;28;20407;-75
2023/12/12 04:52:40;;;;;;;18.43;6.93;;;;;;;;;;5075622;28;20490;-77
2023/12/12 04:55:07;;;;;;;19.92;7.57;;;;;;;;;;5087285;28;20507;-77
2023/12/12 04:57:33;;;;;;;16.38;6.85;;;;;;;;;;5070516;28;20428;-78
2023/12/12 04:59:59;;;;;;;22.00;6.70;;;;;;;;;;5071543;28;20426;-77
2023/12/12 05:02:25;;;;;;;19.13;7.28;;;;;;;;;;5073322;28;20948;-77
2023/12/12 05:04:51;;;;;;;23.92;8.20;;;;;;;;;;5091890;28;20481;-78
2023/12/12 05:07:17;;;;;;;24.17;7.82;;;;;;;;;;5081902;28;20416;-77
2023/12/12 05:09:43;;;;;;;18.15;7.22;;;;;;;;;;5071428;28;20540;-75
2023/12/12 05:12:10;;;;;;;23.90;8.20;;;;;;;;;;5070149;28;20407;-76
2023/12/12 05:14:36;;;;;;;25.20;8.50;;;;;;;;;;5069451;28;20420;-77
2023/12/12 05:17:02;;;;;;;19.60;7.43;;;;;;;;;;5074160;28;20413;-77
2023/12/12 05:19:28;;;;;;;21.45;7.53;;;;;;;;;;5080869;28;20413;-76
2023/12/12 05:21:54;;;;;;;20.95;7.70;;;;;;;;;;5080167;28;20394;-75
2023/12/12 05:24:20;;;;;;;18.67;7.20;;;;;;;;;;5088324;28;20396;-75
2023/12/12 05:26:46;;;;;;;24.33;9.32;;;;;;;;;;5071219;28;20474;-75
2023/12/12 05:29:13;;;;;;;26.05;9.32;;;;;;;;;;5087786;28;20427;-79
2023/12/12 05:31:39;;;;;;;28.55;9.02;;;;;;;;;;5071566;28;20798;-78
2023/12/12 05:34:05;;;;;;;21.25;8.40;;;;;;;;;;5070756;28;20412;-75
2023/12/12 05:36:31;;;;;;;20.15;8.02;;;;;;;;;;5087745;28;20498;-75
2023/12/12 05:38:57;;;;;;;68.68;13.25;;;;;;;;;;5087222;28;20898;-75
2023/12/12 05:41:23;;;;;;;222.75;24.40;;;;;;;;;;5087044;28;20998;-78
2023/12/12 05:43:49;;;;;;;34.53;10.55;;;;;;;;;;5071340;28;20887;-78
2023/12/12 05:46:15;;;;;;;24.42;9.18;;;;;;;;;;5089212;28;20546;-78
2023/12/12 05:48:42;;;;;;;22.73;9.35;;;;;;;;;;5085610;28;20419;-75
2023/12/12 05:51:08;;;;;;;27.15;11.68;;;;;;;;;;5036802;28;20406;-75
2023/12/12 05:53:34;;;;;;;19.52;9.90;;;;;;;;;;5069718;28;20412;-78
2023/12/12 05:56:00;;;;;;;17.20;8.70;;;;;;;;;;5088013;28;20427;-79
2023/12/12 05:58:26;;;;;;;20.67;8.30;;;;;;;;;;5072691;28;20403;-78
2023/12/12 06:00:52;;;;;;;29.97;8.60;;;;;;;;;;5072471;28;20551;-78
2023/12/12 06:03:18;;;;;;;24.70;7.50;;;;;;;;;;5070802;28;20919;-78
2023/12/12 06:05:44;;;;;;;84.85;11.30;;;;;;;;;;5053256;28;20810;-78
2023/12/12 06:08:11;;;;;;;39.20;8.10;;;;;;;;;;5058343;28;20752;-75
2023/12/12 06:10:37;;;;;;;62.20;9.77;;;;;;;;;;5074557;28;20414;-75
2023/12/12 06:13:04;;;;;;;143.35;12.07;;;;;;;;;;5050515;28;20455;-75
2023/12/12 06:15:30;;;;;;;215.55;14.63;;;;;;;;;;5056365;28;20412;-79
2023/12/12 06:17:56;;;;;;;185.00;16.42;;;;;;;;;;5077290;28;20408;-80
2023/12/12 06:20:23;;;;;;;415.83;32.53;;;;;;;;;;5069181;28;21096;-75
2023/12/12 06:22:49;;;;;;;427.83;23.48;;;;;;;;;;5052603;28;20411;-79
2023/12/12 06:25:15;;;;;;;579.83;30.88;;;;;;;;;;5070268;28;20483;-79
2023/12/12 06:27:41;;;;;;;547.40;29.80;;;;;;;;;;5105228;28;20406;-79
2023/12/12 06:30:07;;;;;;;533.40;31.60;;;;;;;;;;5055360;28;20755;-79
2023/12/12 06:32:34;;;;;;;417.47;28.67;;;;;;;;;;5069406;28;20901;-78
2023/12/12 06:35:00;;;;;;;413.73;29.25;;;;;;;;;;5070682;28;20419;-78
2023/12/12 06:37:26;;;;;;;218.20;21.95;;;;;;;;;;5078908;28;20761;-75
2023/12/12 06:39:52;;;;;;;144.10;18.73;;;;;;;;;;5055768;28;20911;-75
2023/12/12 06:42:18;;;;;;;143.68;20.55;;;;;;;;;;5051290;28;20865;-76
2023/12/12 06:44:44;;;;;;;179.05;20.77;;;;;;;;;;5046872;28;20425;-76
2023/12/12 06:47:10;;;;;;;168.43;19.63;;;;;;;;;;5036197;28;20391;-75
2023/12/12 06:49:36;;;;;;;377.52;30.92;;;;;;;;;;5070296;28;20407;-76
2023/12/12 06:52:03;;;;;;;356.63;41.92;;;;;;;;;;5052060;28;20424;-75
2023/12/12 06:54:29;;;;;;;388.10;34.17;;;;;;;;;;5052903;28;20416;-75
2023/12/12 06:56:55;;;;;;;380.23;35.20;;;;;;;;;;5078449;28;20438;-75
2023/12/12 06:59:21;;;;;;;239.82;25.27;;;;;;;;;;5102889;28;20960;-75
2023/12/12 07:01:47;;;;;;;266.85;28.40;;;;;;;;;;5083170;28;21204;-75
2023/12/12 07:04:13;;;;;;;173.07;28.90;;;;;;;;;;5053192;28;20461;-75
2023/12/12 07:06:41;;;;;;;460.92;48.45;;;;;;;;;;5050196;28;20430;-75
2023/12/12 07:09:10;;;;;;;505.88;45.53;;;;;;;;;;5069054;28;20879;-79
2023/12/12 07:11:37;;;;;;;559.30;53.00;;;;;;;;;;5068737;28;20434;-79
2023/12/12 07:14:03;;;;;;;407.80;43.97;;;;;;;;;;5083110;28;20523;-79
2023/12/12 07:16:29;;;;;;;454.92;42.58;;;;;;;;;;5055766;28;20408;-79
2023/12/12 07:18:58;;;;;;;477.00;43.03;;;;;;;;;;5070747;28;20433;-75
2023/12/12 07:21:24;;;;;;;517.80;47.70;;;;;;;;;;5106958;27;20606;-75
2023/12/12 07:23:51;;;;;;;439.83;41.08;;;;;;;;;;5072894;28;20881;-75
2023/12/12 07:26:18;;;;;;;327.02;35.70;;;;;;;;;;5062234;28;20485;-75
2023/12/12 07:28:44;;;;;;;477.80;46.35;;;;;;;;;;5077864;28;20394;-75
2023/12/12 07:31:10;;;;;;;347.75;37.85;;;;;;;;;;5066609;28;20759;-75
2023/12/12 07:33:37;;;;;;;593.70;85.72;;;;;;;;;;5073625;28;20395;-76
2023/12/12 07:36:03;;;;;;;489.20;60.77;;;;;;;;;;5073926;28;20399;-76
2023/12/12 07:38:29;;;;;;;487.17;70.22;;;;;;;;;;5079519;28;20518;-76
2023/12/12 07:40:55;;;;;;;459.20;51.60;;;;;;;;;;5066212;28;20973;-75
2023/12/12 07:43:22;;;;;;;510.83;70.68;;;;;;;;;;5063927;28;20402;-76
2023/12/12 07:45:48;;;;;;;492.63;56.47;;;;;;;;;;5081514;28;20403;-76
2023/12/12 07:48:14;;;;;;;526.92;55.22;;;;;;;;;;5070920;28;20494;-80
2023/12/12 07:50:40;;;;;;;441.50;49.55;;;;;;;;;;5072860;28;20907;-76
2023/12/12 07:53:06;;;;;;;390.95;45.47;;;;;;;;;;5071887;28;20402;-76
2023/12/12 07:55:32;;;;;;;411.95;48.22;;;;;;;;;;5055307;28;20428;-76
2023/12/12 07:57:58;;;;;;;397.52;46.55;;;;;;;;;;5053674;28;20420;-75
2023/12/12 08:00:26;;;;;;;364.83;44.55;;;;;;;;;;5071345;28;21101;-75
2023/12/12 08:02:52;;;;;;;368.75;47.40;;;;;;;;;;5057205;28;20399;-75
2023/12/12 08:05:18;;;;;;;420.33;48.58;;;;;;;;;;5072938;28;20419;-75
2023/12/12 08:07:44;;;;;;;164.20;32.25;;;;;;;;;;5059155;28;20494;-75
2023/12/12 08:10:10;;;;;;;280.60;39.05;;;;;;;;;;5069595;28;20451;-75
2023/12/12 08:12:36;;;;;;;266.55;40.78;;;;;;;;;;5073416;28;20441;-80
2023/12/12 08:15:03;;;;;;;432.92;51.88;;;;;;;;;;5076181;28;20402;-80
2023/12/12 08:17:29;;;;;;;450.60;52.17;;;;;;;;;;5084289;28;20418;-76
2023/12/12 08:19:55;;;;;;;486.40;56.13;;;;;;;;;;5067339;28;20423;-81
2023/12/12 08:22:21;;;;;;;510.33;61.17;;;;;;;;;;5073559;28;20396;-80
2023/12/12 08:24:54;;;;;;;550.90;61.80;;;;;;;;;;5061400;28;20401;-76
2023/12/12 08:27:20;;;;;;;631.70;68.20;;;;;;;;;;5093642;28;20404;-76
2023/12/12 08:29:48;;;;;;;874.30;85.13;;;;;;;;;;5072643;28;20522;-76
2023/12/12 08:32:14;;;;;;;638.28;69.97;;;;;;;;;;5072851;28;20494;-80
2023/12/12 08:34:40;;;;;;;628.80;68.40;;;;;;;;;;5073997;28;20412;-81
2023/12/12 08:37:06;;;;;;;756.22;80.47;;;;;;;;;;5102241;28;20468;-75
2023/12/12 08:39:33;;;;;;;925.38;95.93;;;;;;;;;;5109266;27;20435;-74
2023/12/12 08:41:59;;;;;;;781.73;86.43;;;;;;;;;;5077824;28;20390;-74
2023/12/12 08:44:25;;;;;;;665.95;80.28;;;;;;;;;;5074611;28;20396;-75
2023/12/12 08:46:51;;;;;;;700.22;86.70;;;;;;;;;;5072343;28;20415;-81
2023/12/12 08:49:18;;;;;;;715.13;86.45;;;;;;;;;;5073388;28;20458;-80
2023/12/12 08:51:44;;;;;;;718.75;87.50;;;;;;;;;;5125719;27;20444;-80
2023/12/12 08:54:10;;;;;;;725.55;89.00;;;;;;;;;;5081460;28;20415;-80
2023/12/12 08:56:41;;;;;;;636.67;81.72;;;;;;;;;;5071042;28;20413;-79
2023/12/12 08:59:07;;;;;;;596.08;82.28;;;;;;;;;;5066771;28;21088;-80
2023/12/12 09:01:33;;;;;;;576.92;78.80;;;;;;;;;;5070963;28;20923;-80
2023/12/12 09:03:59;;;;;;;582.47;78.03;;;;;;;;;;5053243;28;20395;-80
2023/12/12 09:06:25;;;;;;;546.60;75.10;;;;;;;;;;5052698;28;20428;-80
2023/12/12 09:08:51;;;;;;;726.50;96.70;;;;;;;;;;5070989;28;20431;-79
2023/12/12 09:11:17;;;;;;;589.50;81.90;;;;;;;;;;5082194;28;20412;-79
2023/12/12 09:13:44;;;;;;;610.42;89.13;;;;;;;;;;5057287;28;20426;-79
2023/12/12 09:16:10;;;;;;;564.55;81.13;;;;;;;;;;5082549;28;20497;-79
2023/12/12 09:18:36;;;;;;;725.75;96.45;;;;;;;;;;5078620;28;20438;-79
2023/12/12 09:21:02;;;;;;;532.80;81.57;;;;;;;;;;5068547;28;20552;-74
2023/12/12 09:23:28;;;;;;;585.13;85.93;;;;;;;;;;5053636;28;20435;-73
2023/12/12 09:25:55;;;;;;;613.40;90.63;;;;;;;;;;5082572;28;20465;-74
2023/12/12 09:28:21;;;;;;;595.95;89.82;;;;;;;;;;5078121;28;20414;-74
2023/12/12 09:30:47;;;;;;;531.38;85.38;;;;;;;;;;5069586;28;20418;-75
2023/12/12 09:33:14;;;;;;;682.40;100.27;;;;;;;;;;5053594;28;20469;-76
2023/12/12 09:35:40;;;;;;;646.25;93.78;;;;;;;;;;5073907;28;20400;-80
2023/12/12 09:38:06;;;;;;;617.20;92.63;;;;;;;;;;5070372;28;20414;-80
2023/12/12 09:40:34;;;;;;;616.08;90.85;;;;;;;;;;5053971;28;20480;-80
2023/12/12 09:43:03;;;;;;;608.13;94.65;;;;;;;;;;5070762;28;20488;-80
2023/12/12 09:45:31;;;;;;;555.55;90.03;;;;;;;;;;5071587;28;20403;-79
2023/12/12 09:47:58;;;;;;;511.45;80.57;;;;;;;;;;5054707;28;20870;-80
2023/12/12 09:50:26;;;;;;;565.00;84.30;;;;;;;;;;5071103;28;20438;-80
2023/12/12 09:52:53;;;;;;;494.20;78.93;;;;;;;;;;5076707;28;20402;-79
2023/12/12 09:55:23;;;;;;;429.02;72.90;;;;;;;;;;5071535;28;20407;-81
2023/12/12 09:57:50;;;;;;;482.48;77.40;;;;;;;;;;5051166;28;20401;-80
2023/12/12 10:00:18;;;;;;;590.83;91.70;;;;;;;;;;5081537;28;20418;-81
2023/12/12 10:02:44;;;;;;;471.33;81.45;;;;;;;;;;5053136;28;20419;-80
2023/12/12 10:05:10;;;;;;;481.25;82.97;;;;;;;;;;5079685;28;20409;-81
2023/12/12 10:07:37;;;;;;;523.30;88.23;;;;;;;;;;5068655;28;20493;-81
2023/12/12 10:10:07;;;;;;;884.67;126.03;;;;;;;;;;5097967;28;20399;-79
2023/12/12 10:12:33;;;;;;;578.83;93.10;;;;;;;;;;5054431;28;20415;-80
2023/12/12 10:14:59;;;;;;;620.78;95.43;;;;;;;;;;5070007;28;20427;-80
2023/12/12 10:17:26;;;;;;;549.00;92.68;;;;;;;;;;5053232;28;20737;-79
2023/12/12 10:20:00;;;;;;;580.22;94.55;;;;;;;;;;5069089;28;20416;-80
2023/12/12 10:22:30;;;;;;;552.17;87.85;;;;;;;;;;5075433;28;20431;-80
2023/12/12 10:25:07;;;;;;;547.05;87.68;;;;;;;;;;5070362;28;20395;-80
2023/12/12 10:27:33;;;;;;;610.53;96.25;;;;;;;;;;5063928;28;20400;-80
2023/12/12 10:29:59;;;;;;;593.10;95.20;;;;;;;;;;5104430;28;20422;-80
2023/12/12 10:32:26;;;;;;;408.05;76.85;;;;;;;;;;5069726;28;20403;-79
2023/12/12 10:34:52;;;;;;;228.00;61.22;;;;;;;;;;5070065;28;20399;-79
2023/12/12 10:37:19;;;;;;;187.38;56.08;;;;;;;;;;5054019;28;20399;-81
2023/12/12 10:39:48;;;;;;;346.90;65.15;;;;;;;;;;5069335;28;20458;-81
2023/12/12 10:42:15;;;;;;;145.75;49.15;;;;;;;;;;5053466;28;20446;-81
2023/12/12 10:44:44;;;;;;;164.10;52.38;;;;;;;;;;5073154;28;20951;-81
2023/12/12 10:47:12;;;;;;;147.95;50.78;;;;;;;;;;5087240;28;20794;-81
2023/12/12 10:49:41;;;;;;;155.73;48.40;;;;;;;;;;5069012;28;20403;-77
2023/12/12 10:52:08;;;;;;;122.15;45.97;;;;;;;;;;5068819;28;20759;-77
2023/12/12 10:54:35;;;;;;;134.20;47.80;;;;;;;;;;5079106;28;20406;-76
2023/12/12 10:57:05;;;;;;;123.82;45.75;;;;;;;;;;5071673;28;20901;-77
2023/12/12 10:59:31;;;;;;;127.03;45.88;;;;;;;;;;5072816;28;20410;-77
2023/12/12 11:01:57;;;;;;;111.10;43.33;;;;;;;;;;5073013;28;20404;-77
2023/12/12 11:04:24;;;;;;;120.07;45.23;;;;;;;;;;5072800;28;20475;-77
2023/12/12 11:06:52;;;;;;;113.43;43.92;;;;;;;;;;5073660;28;20416;-76
2023/12/12 11:09:22;;;;;;;567.80;78.93;;;;;;;;;;5072737;28;20750;-77
2023/12/12 11:11:49;;;;;;;100.38;41.97;;;;;;;;;;5074243;28;20424;-77
2023/12/12 11:14:17;;;;;;;95.55;40.17;;;;;;;;;;5071462;28;20498;-76
2023/12/12 11:16:44;;;;;;;89.43;38.90;;;;;;;;;;5051231;28;20403;-77
2023/12/12 11:19:16;;;;;;;191.23;47.35;;;;;;;;;;5073705;28;20822;-77
2023/12/12 11:21:49;;;;;;;87.78;38.88;;;;;;;;;;5072017;28;20431;-76
2023/12/12 11:24:16;;;;;;;90.55;39.17;;;;;;;;;;5070034;28;20457;-77
2023/12/12 11:26:44;;;;;;;88.75;39.45;;;;;;;;;;5081926;28;20438;-76
2023/12/12 11:29:14;;;;;;;125.03;42.38;;;;;;;;;;5073026;28;20831;-77
2023/12/12 11:31:56;;;;;;;87.03;39.38;;;;;;;;;;5073913;28;20407;-77
2023/12/12 11:34:23;;;;;;;87.97;38.80;;;;;;;;;;5070853;28;20435;-77
2023/12/12 11:36:51;;;;;;;85.68;38.33;;;;;;;;;;5070354;28;20410;-76
2023/12/12 11:39:51;;;;;;;82.07;39.03;;;;;;;;;;5068504;28;20453;-76
2023/12/12 11:42:18;;;;;;;87.28;39.00;;;;;;;;;;5060005;28;20443;-76
2023/12/12 11:44:47;;;;;;;84.07;39.10;;;;;;;;;;5070517;28;20411;-77
2023/12/12 11:47:17;;;;;;;89.57;40.38;;;;;;;;;;5053971;28;20410;-76
2023/12/12 11:49:44;;;;;;;97.50;41.67;;;;;;;;;;5072217;28;20392;-77
2023/12/12 11:52:10;;;;;;;92.00;41.60;;;;;;;;;;5057621;28;20412;-76
2023/12/12 11:54:38;;;;;;;94.00;39.90;;;;;;;;;;5071641;28;20395;-76
2023/12/12 11:57:05;;;;;;;78.22;37.90;;;;;;;;;;5049388;28;20415;-76
2023/12/12 11:59:33;;;;;;;87.30;38.83;;;;;;;;;;5064825;28;20443;-76
2023/12/12 12:01:59;;;;;;;77.32;37.42;;;;;;;;;;5070586;28;20415;-76
2023/12/12 12:04:26;;;;;;;82.10;38.22;;;;;;;;;;5072041;28;20411;-76
2023/12/12 12:06:53;;;;;;;80.57;39.47;;;;;;;;;;5072844;28;20970;-77
2023/12/12 12:09:19;;;;;;;94.78;41.95;;;;;;;;;;5085902;28;20423;-77
2023/12/12 12:11:51;;;;;;;87.93;41.13;;;;;;;;;;5073492;28;20845;-77
2023/12/12 12:14:27;;;;;;;93.78;42.58;;;;;;;;;;5068949;28;20418;-77
2023/12/12 12:16:55;;;;;;;93.97;43.15;;;;;;;;;;5069640;28;20419;-81
2023/12/12 12:19:34;;;;;;;155.30;49.20;;;;;;;;;;5068811;28;20402;-81
2023/12/12 12:22:08;;;;;;;106.13;44.55;;;;;;;;;;5072276;28;20419;-80
2023/12/12 12:24:40;;;;;;;98.45;43.05;;;;;;;;;;5069266;28;20518;-80
2023/12/12 12:27:06;;;;;;;109.82;44.67;;;;;;;;;;5070820;28;20396;-80
2023/12/12 12:29:32;;;;;;;280.92;57.28;;;;;;;;;;5036684;28;20728;-80
2023/12/12 12:32:14;;;;;;;111.40;47.40;;;;;;;;;;5107914;27;20408;-81
2023/12/12 12:34:41;;;;;;;118.97;49.35;;;;;;;;;;5067015;28;20425;-80
2023/12/12 12:37:07;;;;;;;131.70;47.47;;;;;;;;;;5058201;28;20471;-80
2023/12/12 12:39:43;;;;;;;161.30;48.63;;;;;;;;;;5079192;28;20754;-80
2023/12/12 12:42:09;;;;;;;120.25;47.47;;;;;;;;;;5063104;28;20413;-79
2023/12/12 12:44:41;;;;;;;116.15;47.28;;;;;;;;;;5062685;28;20481;-80
2023/12/12 12:47:07;;;;;;;122.25;48.03;;;;;;;;;;5063392;28;20423;-80
2023/12/12 12:49:33;;;;;;;131.40;47.33;;;;;;;;;;5071927;28;20967;-80
2023/12/12 12:51:59;;;;;;;118.45;48.58;;;;;;;;;;5055585;28;20866;-80
2023/12/12 12:54:25;;;;;;;109.60;45.30;;;;;;;;;;5072331;28;20748;-80
2023/12/12 12:56:51;;;;;;;121.95;47.08;;;;;;;;;;5066164;28;20513;-80
2023/12/12 12:59:18;;;;;;;127.57;46.20;;;;;;;;;;5060525;28;20411;-80
2023/12/12 13:01:48;;;;;;;116.90;47.45;;;;;;;;;;5056366;28;20420;-80
2023/12/12 13:04:14;;;;;;;110.32;49.00;;;;;;;;;;5068896;28;20476;-80
2023/12/12 13:06:40;;;;;;;112.05;45.47;;;;;;;;;;5103338;27;20408;-80
2023/12/12 13:09:12;;;;;;;164.93;47.63;;;;;;;;;;5070181;28;20411;-80
2023/12/12 13:11:38;;;;;;;108.95;45.70;;;;;;;;;;5070007;28;20416;-80
2023/12/12 13:14:05;;;;;;;103.45;45.55;;;;;;;;;;5063565;28;20413;-80
2023/12/12 13:16:31;;;;;;;96.57;42.83;;;;;;;;;;5085205;28;20403;-80
2023/12/12 13:18:57;;;;;;;144.20;46.70;;;;;;;;;;5054327;28;20883;-80
2023/12/12 13:21:23;;;;;;;151.77;46.43;;;;;;;;;;5071043;28;20507;-80
2023/12/12 13:23:49;;;;;;;117.78;45.05;;;;;;;;;;5070572;28;20485;-80
2023/12/12 13:26:15;;;;;;;108.35;42.85;;;;;;;;;;5087441;28;20400;-82
2023/12/12 13:28:42;;;;;;;121.30;45.92;;;;;;;;;;5071540;28;20396;-80
2023/12/12 13:31:08;;;;;;;145.38;46.72;;;;;;;;;;5071032;28;20419;-80
2023/12/12 13:33:34;;;;;;;121.72;46.33;;;;;;;;;;5086215;28;20406;-80
2023/12/12 13:36:00;;;;;;;113.63;44.72;;;;;;;;;;5070687;28;20984;-79
2023/12/12 13:38:26;;;;;;;119.70;43.45;;;;;;;;;;5071321;28;20891;-79
2023/12/12 13:40:52;;;;;;;116.93;43.83;;;;;;;;;;5068117;28;20776;-80
2023/12/12 13:43:19;;;;;;;107.60;43.85;;;;;;;;;;5069413;28;20473;-79
2023/12/12 13:45:45;;;;;;;105.38;43.78;;;;;;;;;;5065987;28;20425;-77
2023/12/12 13:48:11;;;;;;;115.53;44.40;;;;;;;;;;5068214;28;20465;-77
2023/12/12 13:50:37;;;;;;;131.52;45.22;;;;;;;;;;5069147;28;20431;-77
2023/12/12 13:53:04;;;;;;;115.25;45.83;;;;;;;;;;5054491;28;20891;-77
2023/12/12 13:55:30;;;;;;;113.50;45.17;;;;;;;;;;5052211;28;20399;-77
2023/12/12 13:57:56;;;;;;;105.10;43.92;;;;;;;;;;5069776;28;20404;-80
2023/12/12 14:00:27;;;;;;;140.32;45.03;;;;;;;;;;5072544;28;20439;-80
2023/12/12 14:02:53;;;;;;;117.80;44.63;;;;;;;;;;5068523;28;20885;-81
2023/12/12 14:05:19;;;;;;;114.18;42.95;;;;;;;;;;5068341;28;20795;-77
2023/12/12 14:07:45;;;;;;;127.43;44.88;;;;;;;;;;5068039;28;20502;-79
2023/12/12 14:10:11;;;;;;;128.60;49.33;;;;;;;;;;5075617;28;20457;-79
2023/12/12 14:12:37;;;;;;;120.13;45.17;;;;;;;;;;5069151;28;20427;-79
2023/12/12 14:15:04;;;;;;;130.05;44.22;;;;;;;;;;5076634;28;20430;-79